Time;durP1;ratioP1;P1;durP2;ratioP2;P2;SDS_P1;SDS_P2;PMS_P1;PMS_P2;Temp;Humidity;BMP_temperature;BMP_pressure;BME280_temperature;BME280_humidity;BME280_pressure;Samples;Min_cycle;Max_cycle;Signal;HPM_P1;HPM_P2
2023/06/11 00:01:17;;;;;;;4.30;1.67;;;;;;;10.87;100.00;99313.13;5161465;27;20050;-63
2023/06/11 00:03:46;;;;;;;4.72;1.30;;;;;;;10.98;100.00;99318.81;5161559;27;20362;-64
2023/06/11 00:06:17;;;;;;;1.73;1.30;;;;;;;10.95;100.00;99311.31;5161356;27;20067;-66
2023/06/11 00:08:43;;;;;;;5.20;1.35;;;;;;;11.00;100.00;99305.53;5161680;27;20061;-64
2023/06/11 00:11:09;;;;;;;2.42;1.30;;;;;;;10.74;100.00;99296.03;5161094;27;20430;-58
2023/06/11 00:13:35;;;;;;;4.50;1.40;;;;;;;10.84;100.00;99284.47;5161554;27;20042;-60
2023/06/11 00:16:01;;;;;;;3.95;1.10;;;;;;;10.86;100.00;99311.53;5161067;27;20047;-63
2023/06/11 00:18:27;;;;;;;3.90;1.40;;;;;;;11.03;100.00;99308.34;5161500;27;20077;-66
2023/06/11 00:20:56;;;;;;;2.47;1.17;;;;;;;10.77;100.00;99280.81;5160903;27;20167;-64
2023/06/11 00:23:22;;;;;;;1.92;1.30;;;;;;;10.81;100.00;99276.97;5161164;27;20047;-56
2023/06/11 00:25:48;;;;;;;1.80;1.40;;;;;;;10.80;100.00;99258.94;5160850;27;20051;-54
2023/06/11 00:28:14;;;;;;;3.53;1.85;;;;;;;10.51;100.00;99265.84;5161028;27;20138;-55
2023/06/11 00:30:40;;;;;;;3.40;1.10;;;;;;;10.64;100.00;99238.28;5161145;27;20196;-63
2023/06/11 00:33:06;;;;;;;3.25;1.42;;;;;;;10.73;100.00;99253.34;5160890;27;20420;-65
2023/06/11 00:35:32;;;;;;;3.05;1.35;;;;;;;10.64;100.00;99258.25;5160904;27;20432;-65
2023/06/11 00:37:58;;;;;;;5.85;1.27;;;;;;;10.78;100.00;99265.94;5160815;27;20191;-64
2023/06/11 00:40:24;;;;;;;4.72;1.40;;;;;;;10.78;100.00;99253.03;5161017;27;20057;-66
2023/06/11 00:42:50;;;;;;;4.72;1.17;;;;;;;10.76;100.00;99268.25;5160668;27;20050;-64
2023/06/11 00:45:17;;;;;;;6.75;1.40;;;;;;;10.75;100.00;99252.97;5160584;27;20051;-59
2023/06/11 00:47:42;;;;;;;1.23;1.10;;;;;;;10.85;100.00;99271.56;5160545;27;20047;-63
2023/06/11 00:50:10;;;;;;;1.52;1.23;;;;;;;10.63;100.00;99281.34;5160998;27;20057;-66
2023/06/11 00:52:36;;;;;;;1.83;1.13;;;;;;;10.60;100.00;99273.84;5160734;27;20320;-65
2023/06/11 00:55:03;;;;;;;0.95;0.95;;;;;;;10.79;100.00;99260.09;5160384;27;20141;-66
2023/06/11 00:57:29;;;;;;;5.97;1.15;;;;;;;10.32;100.00;99250.19;5160471;27;20050;-53
2023/06/11 00:59:56;;;;;;;2.97;1.10;;;;;;;10.66;100.00;99235.94;5160467;27;20054;-55
2023/06/11 01:02:26;;;;;;;3.17;1.20;;;;;;;10.46;100.00;99226.94;5160667;27;20051;-62
2023/06/11 01:04:57;;;;;;;1.15;1.05;;;;;;;10.61;100.00;99231.56;5159408;27;20054;-59
2023/06/11 01:07:30;;;;;;;9.30;1.13;;;;;;;10.67;100.00;99243.03;5160807;27;20149;-59
2023/06/11 01:09:57;;;;;;;0.90;0.90;;;;;;;10.50;100.00;99230.56;5160326;27;20369;-59
2023/06/11 01:12:24;;;;;;;1.95;1.10;;;;;;;10.40;100.00;99209.25;5163055;27;20053;-62
2023/06/11 01:14:50;;;;;;;1.77;1.20;;;;;;;10.53;100.00;99216.13;5164303;27;20051;-61
2023/06/11 01:17:23;;;;;;;5.47;1.30;;;;;;;10.49;100.00;99215.25;5163508;27;20077;-59
2023/06/11 01:19:58;;;;;;;7.38;1.20;;;;;;;10.40;100.00;99214.72;5160101;27;20423;-64
2023/06/11 01:22:33;;;;;;;8.02;1.27;;;;;;;10.27;100.00;99198.41;5160353;27;20043;-59
2023/06/11 01:25:21;;;;;;;3.17;1.20;;;;;;;10.53;100.00;99216.94;5160206;27;20046;-62
2023/06/11 01:28:10;;;;;;;1.27;1.13;;;;;;;10.26;100.00;99201.50;5159982;27;20047;-55
2023/06/11 01:30:38;;;;;;;3.55;1.42;;;;;;;10.40;100.00;99201.00;5154603;27;20046;-59
2023/06/11 01:33:06;;;;;;;1.35;1.25;;;;;;;10.34;100.00;99193.06;5160021;27;20141;-54
2023/06/11 01:35:33;;;;;;;2.85;1.20;;;;;;;10.11;100.00;99189.47;5159905;27;20130;-66
2023/06/11 01:37:59;;;;;;;3.83;1.27;;;;;;;10.37;100.00;99180.59;5159822;27;20050;-59
2023/06/11 01:40:26;;;;;;;1.30;1.02;;;;;;;10.17;100.00;99171.59;5159544;27;20050;-64
2023/06/11 01:42:53;;;;;;;3.30;1.45;;;;;;;10.35;100.00;99188.38;5159984;27;20052;-64
2023/06/11 01:45:21;;;;;;;3.72;1.02;;;;;;;10.19;100.00;99182.94;5159567;27;20392;-63
2023/06/11 01:47:49;;;;;;;2.00;1.20;;;;;;;10.23;100.00;99178.34;5159853;27;20050;-64
2023/06/11 01:50:15;;;;;;;1.40;1.02;;;;;;;10.24;100.00;99170.94;5159596;27;20047;-67
2023/06/11 01:52:41;;;;;;;6.28;1.20;;;;;;;10.24;100.00;99174.47;5160108;27;20051;-60
2023/06/11 01:55:08;;;;;;;3.63;1.10;;;;;;;10.40;100.00;99188.09;5159378;27;20475;-65
2023/06/11 01:57:34;;;;;;;4.45;1.10;;;;;;;10.16;100.00;99186.41;5159878;27;20060;-53
2023/06/11 02:00:01;;;;;;;7.18;1.25;;;;;;;10.31;100.00;99199.28;5159277;27;20376;-66
2023/06/11 02:02:28;;;;;;;1.83;1.58;;;;;;;10.36;100.00;99190.78;5159214;27;20076;-56
2023/06/11 02:04:54;;;;;;;2.35;1.40;;;;;;;10.25;100.00;99199.91;5159270;27;20142;-65
2023/06/11 02:07:20;;;;;;;2.10;1.70;;;;;;;10.20;100.00;99179.06;5159752;27;20043;-53
2023/06/11 02:09:46;;;;;;;2.47;1.20;;;;;;;10.16;100.00;99194.63;5159215;27;20415;-55
2023/06/11 02:12:12;;;;;;;6.88;1.30;;;;;;;10.49;100.00;99191.38;5159265;27;20138;-55
2023/06/11 02:14:38;;;;;;;1.17;1.05;;;;;;;10.20;100.00;99189.25;5159425;27;20074;-53
2023/06/11 02:17:04;;;;;;;3.05;1.08;;;;;;;10.19;100.00;99193.13;5159268;27;20137;-57
2023/06/11 02:19:31;;;;;;;4.10;1.38;;;;;;;10.28;100.00;99169.06;5159453;27;20046;-59
2023/06/11 02:21:57;;;;;;;10.63;1.42;;;;;;;10.69;100.00;99227.78;5159016;27;20139;-64
2023/06/11 02:24:23;;;;;;;1.83;0.90;;;;;;;10.59;100.00;99262.06;5159384;27;20091;-59
2023/06/11 02:26:49;;;;;;;12.10;1.55;;;;;;;10.93;100.00;99287.00;5159015;27;20100;-56
2023/06/11 02:29:15;;;;;;;0.98;0.90;;;;;;;11.25;100.00;99319.69;5159332;27;20096;-54
2023/06/11 02:31:41;;;;;;;3.55;1.23;;;;;;;11.27;100.00;99361.31;5159151;27;20077;-55
2023/06/11 02:34:06;;;;;;;1.27;1.10;;;;;;;11.38;100.00;99377.94;5159053;27;20134;-60
2023/06/11 02:36:33;;;;;;;1.98;1.00;;;;;;;11.46;100.00;99390.63;5159044;27;20074;-63
2023/06/11 02:38:59;;;;;;;2.40;1.35;;;;;;;11.56;100.00;99398.25;5158897;27;20134;-60
2023/06/11 02:41:25;;;;;;;1.83;1.13;;;;;;;12.16;100.00;99447.97;5159100;27;20078;-63
2023/06/11 02:43:51;;;;;;;1.85;1.27;;;;;;;11.83;100.00;99481.53;5158566;27;20373;-66
2023/06/11 02:46:17;;;;;;;1.30;1.10;;;;;;;12.75;100.00;99495.19;5159037;27;20047;-60
2023/06/11 02:48:43;;;;;;;1.38;1.20;;;;;;;12.29;100.00;99506.28;5158560;27;20400;-55
2023/06/11 02:51:09;;;;;;;5.40;1.20;;;;;;;12.36;100.00;99509.16;5159024;27;20046;-66
2023/06/11 02:53:36;;;;;;;1.80;1.10;;;;;;;12.38;100.00;99497.78;5158434;27;20456;-65
2023/06/11 02:56:02;;;;;;;1.08;0.82;;;;;;;12.60;100.00;99524.47;5159001;27;20323;-60
2023/06/11 02:58:27;;;;;;;5.20;1.58;;;;;;;13.16;100.00;99547.66;5158452;27;20142;-59
2023/06/11 03:00:53;;;;;;;4.35;1.02;;;;;;;12.97;100.00;99578.06;5158829;27;20137;-56
2023/06/11 03:03:19;;;;;;;1.65;1.13;;;;;;;12.72;100.00;99556.47;5158689;27;20133;-54
2023/06/11 03:05:45;;;;;;;6.15;1.20;;;;;;;12.86;100.00;99569.63;5158055;27;20464;-55
2023/06/11 03:08:11;;;;;;;2.67;1.30;;;;;;;13.14;100.00;99607.81;5158528;27;20054;-60
2023/06/11 03:10:38;;;;;;;1.40;1.30;;;;;;;13.08;100.00;99584.53;5158189;27;20046;-59
2023/06/11 03:13:04;;;;;;;4.38;0.98;;;;;;;13.01;100.00;99576.16;5158410;27;20145;-55
2023/06/11 03:15:30;;;;;;;3.25;1.10;;;;;;;13.69;100.00;99602.66;5158098;27;20086;-60
2023/06/11 03:17:57;;;;;;;2.58;1.10;;;;;;;14.07;100.00;99618.09;5158594;27;20084;-66
2023/06/11 03:20:23;;;;;;;1.17;1.08;;;;;;;13.97;100.00;99618.75;5158068;27;20133;-60
2023/06/11 03:22:49;;;;;;;2.55;1.02;;;;;;;13.40;100.00;99627.09;5158467;27;20137;-56
2023/06/11 03:25:15;;;;;;;1.85;0.75;;;;;;;14.06;100.00;99623.97;5157947;27;20400;-60
2023/06/11 03:27:42;;;;;;;5.00;1.20;;;;;;;13.75;100.00;99637.00;5157887;27;20051;-63
2023/06/11 03:30:08;;;;;;;1.10;1.10;;;;;;;14.08;100.00;99635.41;5158193;27;20047;-60
2023/06/11 03:32:34;;;;;;;5.75;1.20;;;;;;;14.43;100.00;99639.69;5158145;27;20057;-54
2023/06/11 03:35:00;;;;;;;1.88;1.20;;;;;;;14.41;100.00;99656.66;5158179;27;20074;-56
2023/06/11 03:37:26;;;;;;;2.00;1.30;;;;;;;13.75;100.00;99638.94;5158044;27;20050;-60
2023/06/11 03:39:52;;;;;;;7.68;1.10;;;;;;;14.96;100.00;99653.22;5157995;27;20138;-61
2023/06/11 03:42:18;;;;;;;1.20;1.10;;;;;;;14.62;100.00;99652.53;5157972;27;20047;-63
2023/06/11 03:44:44;;;;;;;3.70;1.05;;;;;;;14.16;100.00;99648.13;5158013;27;20455;-67
2023/06/11 03:47:10;;;;;;;1.73;1.10;;;;;;;14.67;100.00;99650.22;5157896;27;20330;-63
2023/06/11 03:49:36;;;;;;;1.10;1.00;;;;;;;14.40;100.00;99662.56;5158091;27;20503;-60
2023/06/11 03:52:02;;;;;;;4.05;1.40;;;;;;;14.77;100.00;99663.31;5157747;27;20055;-60
2023/06/11 03:54:28;;;;;;;1.67;1.05;;;;;;;14.30;100.00;99662.06;5158168;27;20407;-56
2023/06/11 03:56:54;;;;;;;3.97;1.80;;;;;;;14.78;100.00;99673.19;5157638;27;20089;-56
2023/06/11 03:59:20;;;;;;;1.95;1.42;;;;;;;15.13;100.00;99671.09;5158061;27;20095;-60
2023/06/11 04:01:46;;;;;;;3.88;1.58;;;;;;;14.79;100.00;99666.50;5158124;27;20089;-64
2023/06/11 04:04:12;;;;;;;1.20;0.95;;;;;;;15.32;100.00;99668.06;5157690;27;20141;-60
2023/06/11 04:06:39;;;;;;;3.88;1.30;;;;;;;15.18;100.00;99679.81;5157839;27;20047;-63
2023/06/11 04:09:05;;;;;;;1.30;1.20;;;;;;;15.22;100.00;99688.91;5157658;27;20137;-65
2023/06/11 04:11:31;;;;;;;1.75;1.42;;;;;;;15.14;100.00;99680.97;5157816;27;20457;-60
2023/06/11 04:13:57;;;;;;;3.85;1.83;;;;;;;15.49;100.00;99681.22;5157417;27;20047;-55
2023/06/11 04:16:23;;;;;;;1.10;0.98;;;;;;;15.97;99.06;99697.69;5157718;27;20476;-60
2023/06/11 04:18:50;;;;;;;1.70;1.20;;;;;;;15.42;100.00;99706.03;5157465;27;20057;-60
2023/06/11 04:21:16;;;;;;;3.28;1.50;;;;;;;15.14;100.00;99686.50;5157728;27;20050;-64
2023/06/11 04:23:42;;;;;;;3.72;1.50;;;;;;;15.93;100.00;99707.16;5157445;27;20524;-65
2023/06/11 04:26:08;;;;;;;5.63;1.45;;;;;;;15.72;99.33;99716.13;5157674;27;20054;-60
2023/06/11 04:28:35;;;;;;;1.40;1.30;;;;;;;15.70;97.71;99707.44;5157247;27;20054;-56
2023/06/11 04:31:01;;;;;;;3.08;1.52;;;;;;;15.93;97.91;99716.25;5157195;27;20107;-60
2023/06/11 04:33:32;;;;;;;1.60;1.23;;;;;;;15.75;98.75;99724.44;5157215;27;20050;-61
2023/06/11 04:36:00;;;;;;;1.58;1.27;;;;;;;16.29;94.13;99721.91;5157216;27;20062;-64
2023/06/11 04:38:28;;;;;;;1.20;1.10;;;;;;;15.67;96.71;99717.28;5157783;27;20042;-68
2023/06/11 04:40:54;;;;;;;4.43;1.55;;;;;;;16.46;91.63;99729.50;5160821;27;20054;-60
2023/06/11 04:43:22;;;;;;;3.97;1.40;;;;;;;16.19;95.48;99719.91;5161014;27;20137;-54
2023/06/11 04:45:49;;;;;;;1.85;1.60;;;;;;;16.81;87.40;99728.03;5160591;27;20110;-64
2023/06/11 04:48:21;;;;;;;2.40;1.50;;;;;;;16.31;90.78;99750.00;5160946;27;20057;-64
2023/06/11 04:50:48;;;;;;;3.10;1.58;;;;;;;15.96;93.61;99728.50;5160536;27;20051;-60
2023/06/11 04:53:22;;;;;;;7.88;1.65;;;;;;;16.13;92.22;99733.34;5160911;27;20047;-61
2023/06/11 04:55:50;;;;;;;3.33;1.45;;;;;;;16.77;87.73;99741.06;5160466;27;20086;-64
2023/06/11 04:58:16;;;;;;;7.22;1.40;;;;;;;16.80;84.14;99739.50;5160515;27;20061;-55
2023/06/11 05:00:42;;;;;;;2.53;1.35;;;;;;;16.35;85.73;99750.00;5160744;27;20043;-60
2023/06/11 05:03:08;;;;;;;2.83;1.50;;;;;;;16.60;86.40;99742.59;5160495;27;20074;-64
2023/06/11 05:05:34;;;;;;;5.45;1.50;;;;;;;17.21;84.62;99755.75;5160336;27;20054;-60
2023/06/11 05:08:01;;;;;;;5.45;1.20;;;;;;;16.94;86.61;99742.28;5160371;27;20104;-56
2023/06/11 05:10:27;;;;;;;6.05;1.70;;;;;;;17.49;81.76;99754.97;5160763;27;20381;-56
2023/06/11 05:12:53;;;;;;;3.17;1.48;;;;;;;17.45;79.73;99759.72;5160174;27;20339;-60
2023/06/11 05:15:19;;;;;;;6.72;1.40;;;;;;;17.97;76.47;99762.84;5160504;27;20088;-60
2023/06/11 05:17:45;;;;;;;1.20;1.10;;;;;;;18.49;75.62;99768.59;5160292;27;20057;-60
2023/06/11 05:20:12;;;;;;;4.10;1.40;;;;;;;18.49;75.10;99772.19;5161413;27;20118;-62
2023/06/11 05:22:39;;;;;;;2.22;1.30;;;;;;;18.47;73.06;99779.31;5161262;27;20061;-63
2023/06/11 05:25:06;;;;;;;5.90;1.30;;;;;;;18.65;74.75;99768.91;5161185;27;20086;-61
2023/06/11 05:27:32;;;;;;;1.45;1.25;;;;;;;18.52;73.82;99779.66;5162308;27;20146;-53
2023/06/11 05:29:59;;;;;;;3.10;1.25;;;;;;;18.27;75.77;99771.47;5164119;27;20046;-58
2023/06/11 05:32:25;;;;;;;3.17;1.70;;;;;;;18.29;74.23;99782.97;5163473;27;20134;-57
2023/06/11 05:34:51;;;;;;;2.40;1.25;;;;;;;18.65;73.26;99782.78;5161108;27;20479;-58
2023/06/11 05:37:17;;;;;;;7.60;1.35;;;;;;;19.48;70.07;99771.94;5163369;27;20078;-60
2023/06/11 05:39:43;;;;;;;3.17;1.30;;;;;;;19.97;68.30;99781.84;5161898;27;20081;-67
2023/06/11 05:42:10;;;;;;;7.00;1.65;;;;;;;19.55;67.48;99787.78;5160146;27;20050;-60
2023/06/11 05:44:36;;;;;;;2.38;1.27;;;;;;;19.50;69.95;99775.91;5159577;27;20137;-60
2023/06/11 05:47:02;;;;;;;3.85;1.30;;;;;;;19.18;68.40;99781.69;5160025;27;20323;-65
2023/06/11 05:49:28;;;;;;;1.80;1.23;;;;;;;19.65;69.20;99776.56;5159024;27;20082;-60
2023/06/11 05:51:54;;;;;;;3.40;1.40;;;;;;;20.01;68.34;99778.22;5159657;27;20091;-57
2023/06/11 05:54:20;;;;;;;4.70;1.40;;;;;;;19.51;68.37;99791.38;5159740;27;20064;-58
2023/06/11 05:56:46;;;;;;;4.13;2.78;;;;;;;19.41;67.84;99797.03;5159548;27;20082;-55
2023/06/11 05:59:12;;;;;;;3.25;1.35;;;;;;;19.01;69.16;99793.75;5159732;27;20071;-56
2023/06/11 06:01:38;;;;;;;5.90;1.90;;;;;;;18.86;71.28;99783.91;5159492;27;20043;-61
2023/06/11 06:04:04;;;;;;;1.58;1.40;;;;;;;19.43;69.41;99797.41;5159480;27;20138;-56
2023/06/11 06:06:31;;;;;;;1.80;1.33;;;;;;;19.51;67.08;99796.16;5159269;27;20179;-67
2023/06/11 06:08:59;;;;;;;3.15;1.50;;;;;;;19.56;67.04;99801.28;5159599;27;20046;-57
2023/06/11 06:11:25;;;;;;;3.55;1.35;;;;;;;19.26;68.29;99788.81;5159234;27;20050;-60
2023/06/11 06:13:51;;;;;;;2.13;1.48;;;;;;;20.29;66.54;99799.38;5159612;27;20159;-57
2023/06/11 06:16:17;;;;;;;1.65;1.35;;;;;;;20.42;65.64;99795.63;5159066;27;20082;-54
2023/06/11 06:18:44;;;;;;;3.47;1.30;;;;;;;21.42;63.70;99801.84;5159555;27;20141;-56
2023/06/11 06:21:10;;;;;;;4.25;1.27;;;;;;;21.88;62.08;99808.63;5159290;27;20067;-61
2023/06/11 06:23:36;;;;;;;7.55;1.55;;;;;;;21.09;62.17;99797.94;5159152;27;20054;-61
2023/06/11 06:26:03;;;;;;;5.05;1.25;;;;;;;;;;5159119;27;20047;-60
2023/06/11 06:28:30;;;;;;;2.30;1.38;;;;;;;21.18;62.42;99809.38;5159029;27;20070;-61
2023/06/11 06:30:56;;;;;;;3.33;1.60;;;;;;;21.07;62.72;99798.38;5158999;27;20378;-60
2023/06/11 06:33:23;;;;;;;27.00;2.72;;;;;;;20.85;63.47;99800.66;5158997;27;20046;-57
2023/06/11 06:35:50;;;;;;;4.93;1.38;;;;;;;19.72;66.18;99806.31;5159181;27;20327;-53
2023/06/11 06:38:16;;;;;;;3.80;1.33;;;;;;;21.71;62.44;99806.97;5158722;27;20323;-59
2023/06/11 06:40:42;;;;;;;1.75;1.40;;;;;;;21.17;62.24;99813.38;5159268;27;20047;-57
2023/06/11 06:43:08;;;;;;;4.03;1.70;;;;;;;20.89;60.97;99811.78;5158757;27;20081;-54
2023/06/11 06:45:34;;;;;;;5.80;1.55;;;;;;;21.11;60.27;99815.84;5159035;27;20051;-54
2023/06/11 06:48:00;;;;;;;4.35;1.70;;;;;;;20.89;61.09;99806.19;5158777;27;20055;-61
2023/06/11 06:50:26;;;;;;;2.25;1.38;;;;;;;20.83;61.57;99805.09;5158496;27;20141;-64
2023/06/11 06:52:53;;;;;;;2.28;1.80;;;;;;;20.96;61.33;99806.13;5158528;27;20053;-61
2023/06/11 06:55:19;;;;;;;4.95;1.65;;;;;;;21.64;59.47;99815.47;5158631;27;20442;-65
2023/06/11 06:57:45;;;;;;;1.30;1.10;;;;;;;21.01;58.73;99814.00;5158819;27;20137;-67
2023/06/11 07:00:12;;;;;;;2.75;1.35;;;;;;;21.05;60.42;99809.16;5158602;27;20093;-60
2023/06/11 07:02:38;;;;;;;7.57;1.50;;;;;;;21.00;60.10;99815.22;5157987;27;20129;-60
2023/06/11 07:05:04;;;;;;;1.83;1.40;;;;;;;21.03;59.46;99836.69;5158239;27;20060;-64
2023/06/11 07:07:30;;;;;;;1.52;1.20;;;;;;;20.79;59.40;99812.72;5158875;27;20050;-55
2023/06/11 07:09:56;;;;;;;3.08;1.33;;;;;;;22.28;57.30;99809.50;5158351;27;20114;-57
2023/06/11 07:12:22;;;;;;;7.00;1.30;;;;;;;22.11;57.37;99809.84;5158508;27;20043;-56
2023/06/11 07:14:48;;;;;;;1.55;1.40;;;;;;;22.76;56.68;99821.31;5158114;27;20088;-56
2023/06/11 07:17:14;;;;;;;3.47;1.65;;;;;;;22.70;55.14;99815.44;5158686;27;20324;-63
2023/06/11 07:19:40;;;;;;;2.05;1.50;;;;;;;23.52;54.26;99828.81;5158281;27;20134;-64
2023/06/11 07:22:06;;;;;;;5.78;1.90;;;;;;;20.97;57.54;99804.91;5158231;27;20462;-67
2023/06/11 07:24:32;;;;;;;6.32;1.80;;;;;;;22.63;55.78;99817.63;5158267;27;20054;-65
2023/06/11 07:26:59;;;;;;;6.47;1.90;;;;;;;22.14;55.16;99811.78;5158192;27;20046;-60
2023/06/11 07:29:25;;;;;;;5.45;1.60;;;;;;;21.78;56.39;99816.00;5158285;27;20133;-65
2023/06/11 07:31:50;;;;;;;7.60;1.98;;;;;;;21.74;55.33;99806.13;5157934;27;20047;-55
2023/06/11 07:34:16;;;;;;;3.10;1.35;;;;;;;22.69;54.82;99810.28;5158268;27;20089;-56
2023/06/11 07:36:42;;;;;;;4.03;1.80;;;;;;;22.99;53.12;99832.44;5158068;27;20103;-56
2023/06/11 07:39:08;;;;;;;3.25;1.40;;;;;;;21.91;54.49;99807.78;5158373;27;20062;-60
2023/06/11 07:41:35;;;;;;;1.45;1.33;;;;;;;21.52;54.50;99806.47;5158510;27;20305;-66
2023/06/11 07:44:01;;;;;;;8.50;2.08;;;;;;;21.46;53.31;99812.94;5158531;27;20053;-64
2023/06/11 07:46:27;;;;;;;5.05;1.20;;;;;;;21.88;53.38;99821.81;5158375;27;20100;-60
2023/06/11 07:48:53;;;;;;;4.10;1.80;;;;;;;22.56;53.55;99812.97;5158708;27;20078;-65
2023/06/11 07:51:20;;;;;;;2.85;1.60;;;;;;;22.60;53.14;99798.91;5158062;27;20130;-67
2023/06/11 07:53:46;;;;;;;4.32;1.58;;;;;;;20.93;53.80;99809.75;5157901;27;20085;-56
2023/06/11 07:56:12;;;;;;;2.30;1.30;;;;;;;20.85;54.73;99830.53;5157881;27;20051;-67
2023/06/11 07:58:38;;;;;;;5.07;1.30;;;;;;;21.17;53.44;99824.53;5157569;27;20297;-67
2023/06/11 08:01:05;;;;;;;2.53;1.67;;;;;;;20.22;55.73;99826.09;5158126;27;20057;-65
2023/06/11 08:03:31;;;;;;;1.58;1.30;;;;;;;20.47;56.11;99847.31;5157650;27;20142;-65
2023/06/11 08:05:57;;;;;;;5.38;1.50;;;;;;;20.08;55.62;99817.88;5157770;27;20415;-65
2023/06/11 08:08:23;;;;;;;6.85;1.45;;;;;;;20.18;56.29;99830.13;5157676;27;20111;-57
2023/06/11 08:10:50;;;;;;;6.97;1.50;;;;;;;20.74;56.46;99810.41;5158131;27;20088;-62
2023/06/11 08:13:17;;;;;;;4.53;1.60;;;;;;;20.17;56.45;99823.78;5159253;27;20336;-54
2023/06/11 08:15:44;;;;;;;2.47;1.33;;;;;;;21.89;54.54;99818.59;5161493;27;20066;-58
2023/06/11 08:18:10;;;;;;;7.22;1.50;;;;;;;21.19;54.72;99822.09;5160933;27;20424;-65
2023/06/11 08:20:36;;;;;;;19.77;2.28;;;;;;;21.58;53.56;99827.09;5160899;27;20055;-66
2023/06/11 08:23:02;;;;;;;4.90;1.45;;;;;;;22.14;53.25;99820.94;5161221;27;20066;-65
2023/06/11 08:25:28;;;;;;;2.95;1.85;;;;;;;22.19;52.91;99828.03;5160803;27;20132;-60
2023/06/11 08:27:55;;;;;;;5.50;1.80;;;;;;;21.35;52.48;99835.44;5161145;27;20074;-57
2023/06/11 08:30:21;;;;;;;8.63;1.70;;;;;;;21.47;54.25;99814.53;5160895;27;20043;-57
2023/06/11 08:32:47;;;;;;;3.15;1.85;;;;;;;21.24;53.72;99835.56;5161051;27;20358;-60
2023/06/11 08:35:14;;;;;;;5.68;1.48;;;;;;;20.92;53.90;99839.63;5160702;27;20465;-64
2023/06/11 08:37:40;;;;;;;9.52;2.00;;;;;;;20.87;54.19;99833.72;5161071;27;20043;-66
2023/06/11 08:40:08;;;;;;;3.70;1.63;;;;;;;21.31;54.27;99826.31;5160706;27;20149;-59
2023/06/11 08:42:34;;;;;;;3.80;1.90;;;;;;;21.17;54.85;99830.09;5161037;27;20528;-65
2023/06/11 08:45:01;;;;;;;13.30;2.47;;;;;;;21.29;54.12;99814.78;5160459;27;20050;-64
2023/06/11 08:47:30;;;;;;;4.20;1.60;;;;;;;21.53;54.40;99815.63;5160641;27;20051;-56
2023/06/11 08:49:58;;;;;;;3.17;1.40;;;;;;;21.05;54.58;99819.50;5160934;27;20058;-60
2023/06/11 08:52:26;;;;;;;3.97;1.90;;;;;;;21.59;54.63;99839.84;5160613;27;20057;-65
2023/06/11 08:54:52;;;;;;;2.45;1.63;;;;;;;20.76;54.65;99827.47;5160726;27;20058;-54
2023/06/11 08:57:19;;;;;;;5.22;1.50;;;;;;;22.05;53.12;99820.69;5160446;27;20057;-64
2023/06/11 08:59:45;;;;;;;5.65;1.83;;;;;;;22.62;53.06;99805.63;5160696;27;20057;-56
2023/06/11 09:02:11;;;;;;;5.55;1.77;;;;;;;22.43;52.23;99821.19;5160562;27;20051;-64
2023/06/11 09:04:39;;;;;;;3.83;1.58;;;;;;;21.11;53.79;99820.63;5160512;27;20057;-67
2023/06/11 09:07:05;;;;;;;3.35;1.30;;;;;;;21.20;53.96;99811.75;5160423;27;20077;-61
2023/06/11 09:09:32;;;;;;;2.95;1.60;;;;;;;21.48;52.69;99833.63;5160636;27;20135;-57
2023/06/11 09:11:58;;;;;;;4.05;1.58;;;;;;;21.32;53.07;99808.34;5160180;27;20400;-60
2023/06/11 09:14:23;;;;;;;4.63;1.60;;;;;;;22.43;52.26;99803.66;5160565;27;20055;-56
2023/06/11 09:16:50;;;;;;;4.30;1.75;;;;;;;22.34;51.56;99814.59;5160122;27;20055;-54
2023/06/11 09:19:16;;;;;;;6.30;1.73;;;;;;;21.78;52.47;99798.47;5161890;27;20074;-57
2023/06/11 09:21:50;;;;;;;2.25;1.38;;;;;;;20.79;53.37;99819.09;5168163;27;20111;-57
2023/06/11 09:24:17;;;;;;;;;;;;;;;20.22;53.76;99811.38;5166837;27;20046;-55
2023/06/11 09:26:51;;;;;;;1.38;1.30;;;;;;;20.79;53.88;99804.34;5160828;27;19923;-67
2023/06/11 09:29:17;;;;;;;1.67;1.50;;;;;;;20.77;53.66;99806.78;5159987;27;20074;-64
2023/06/11 09:31:43;;;;;;;1.90;1.40;;;;;;;21.12;53.54;99791.53;5160317;27;20400;-67
2023/06/11 09:34:12;;;;;;;6.18;1.30;;;;;;;21.57;53.40;99800.41;5159835;27;20065;-55
2023/06/11 09:36:38;;;;;;;8.80;2.20;;;;;;;21.10;52.95;99808.69;5160259;27;20051;-64
2023/06/11 09:39:04;;;;;;;5.03;1.42;;;;;;;20.50;53.81;99801.91;5159733;27;20456;-67
2023/06/11 09:41:32;;;;;;;3.25;1.38;;;;;;;21.26;53.19;99785.75;5159961;27;20053;-65
2023/06/11 09:44:00;;;;;;;1.73;1.63;;;;;;;21.24;51.84;99779.00;5160197;27;20069;-64
2023/06/11 09:46:26;;;;;;;3.17;1.20;;;;;;;21.36;51.41;99789.63;5159608;27;20051;-64
2023/06/11 09:48:53;;;;;;;7.65;1.65;;;;;;;21.27;51.86;99787.31;5159890;27;20043;-57
2023/06/11 09:51:23;;;;;;;6.00;1.45;;;;;;;21.26;51.53;99780.19;5159714;27;20055;-60
2023/06/11 09:53:51;;;;;;;6.05;1.67;;;;;;;21.21;51.54;99794.59;5159832;27;20047;-65
2023/06/11 09:56:18;;;;;;;3.50;1.40;;;;;;;20.47;51.75;99791.59;5159478;27;20070;-62
2023/06/11 09:58:47;;;;;;;1.33;1.13;;;;;;;20.96;52.28;99772.66;5159999;27;20196;-57
2023/06/11 10:01:14;;;;;;;1.95;1.15;;;;;;;20.70;52.73;99804.09;5159389;27;20047;-57
2023/06/11 10:03:40;;;;;;;1.30;1.20;;;;;;;20.54;51.68;99804.69;5159775;27;20138;-64
2023/06/11 10:06:11;;;;;;;7.32;1.52;;;;;;;19.47;52.60;99790.63;5159132;27;20042;-56
2023/06/11 10:08:37;;;;;;;1.85;1.20;;;;;;;20.77;52.29;99790.06;5159236;27;20160;-65
2023/06/11 10:11:04;;;;;;;4.50;1.52;;;;;;;21.66;50.41;99788.72;5159442;27;20145;-54
2023/06/11 10:13:31;;;;;;;5.45;1.42;;;;;;;21.69;50.06;99776.69;5159205;27;20046;-57
2023/06/11 10:15:59;;;;;;;4.88;1.23;;;;;;;21.20;50.22;99803.38;5159236;27;20419;-61
2023/06/11 10:18:26;;;;;;;1.30;1.20;;;;;;;20.53;51.98;99786.41;5159475;27;20050;-61
2023/06/11 10:20:54;;;;;;;1.95;1.23;;;;;;;21.06;52.04;99784.84;5159479;27;20229;-56
2023/06/11 10:23:21;;;;;;;2.75;1.20;;;;;;;21.96;50.74;99773.00;5159056;27;20051;-66
2023/06/11 10:25:55;;;;;;;5.05;2.08;;;;;;;21.89;50.66;99776.72;5159387;27;20293;-70
2023/06/11 10:28:33;;;;;;;6.63;1.42;;;;;;;22.28;50.55;99773.19;5158929;27;20051;-64
2023/06/11 10:31:00;;;;;;;6.88;1.58;;;;;;;21.35;50.84;99768.50;5159202;27;20046;-56
2023/06/11 10:33:36;;;;;;;10.60;1.52;;;;;;;20.70;51.24;99746.38;5159345;27;20137;-67
2023/06/11 10:36:02;;;;;;;1.40;1.30;;;;;;;20.66;52.02;99796.56;5157737;27;20131;-66
2023/06/11 10:38:29;;;;;;;1.83;1.38;;;;;;;20.18;51.55;99778.00;5159062;27;20057;-58
2023/06/11 10:41:02;;;;;;;5.43;1.40;;;;;;;20.72;51.99;99757.88;5158851;27;20047;-54
2023/06/11 10:43:30;;;;;;;4.15;1.70;;;;;;;20.34;52.02;99769.09;5159125;27;20050;-60
2023/06/11 10:46:01;;;;;;;1.92;1.30;;;;;;;20.47;53.04;99760.19;5158833;27;20046;-58
2023/06/11 10:48:27;;;;;;;2.15;1.58;;;;;;;20.09;53.24;99747.13;5159116;27;20103;-67
2023/06/11 10:51:02;;;;;;;4.20;1.55;;;;;;;20.46;52.54;99762.19;5158851;27;20226;-67
2023/06/11 10:53:36;;;;;;;1.58;1.25;;;;;;;20.22;52.64;99752.91;5158515;27;20061;-61
2023/06/11 10:56:02;;;;;;;;;;;;;;;20.25;53.68;99754.88;5159253;27;20133;-55
2023/06/11 10:58:29;;;;;;;3.50;1.55;;;;;;;20.50;53.84;99757.34;5158486;27;19982;-67
2023/06/11 11:00:56;;;;;;;1.98;1.27;;;;;;;19.83;55.22;99709.66;5158978;27;20046;-54
2023/06/11 11:03:23;;;;;;;2.80;1.30;;;;;;;19.42;55.03;99745.78;5158349;27;20199;-56
2023/06/11 11:05:50;;;;;;;2.55;1.45;;;;;;;19.15;53.87;99751.16;5158639;27;20073;-56
2023/06/11 11:08:17;;;;;;;2.00;1.00;;;;;;;19.09;55.05;99739.69;5158424;27;20107;-54
2023/06/11 11:10:43;;;;;;;3.50;1.27;;;;;;;19.12;55.08;99738.06;5158743;27;20053;-61
2023/06/11 11:13:08;;;;;;;4.88;1.15;;;;;;;19.23;55.32;99764.59;5158363;27;20323;-64
2023/06/11 11:15:34;;;;;;;7.00;1.52;;;;;;;19.13;54.81;99759.91;5158692;27;20438;-66
2023/06/11 11:18:02;;;;;;;1.70;1.10;;;;;;;18.76;55.03;99764.13;5158180;27;20440;-66
2023/06/11 11:20:31;;;;;;;6.63;1.55;;;;;;;19.30;55.11;99752.63;5158890;27;20050;-53
2023/06/11 11:22:57;;;;;;;9.70;1.40;;;;;;;19.34;54.75;99755.38;5158088;27;20139;-61
2023/06/11 11:25:27;;;;;;;1.27;1.17;;;;;;;19.41;54.60;99724.75;5158364;27;20273;-63
2023/06/11 11:27:54;;;;;;;3.72;1.50;;;;;;;19.03;54.69;99772.69;5158434;27;20290;-67
2023/06/11 11:30:20;;;;;;;1.90;1.60;;;;;;;18.98;54.26;99727.88;5158217;27;20397;-57